sensor_id;sensor_type;location;lat;lon;timestamp;P1;durP1;ratioP1;P2;durP2;ratioP2
68229;SDS011;55048;52.220;5.160;2022-07-12T00:00:53;1.17;;;1.00;;
68229;SDS011;55048;52.220;5.160;2022-07-12T00:03:18;1.88;;;1.10;;
68229;SDS011;55048;52.220;5.160;2022-07-12T00:05:43;3.35;;;1.23;;
68229;SDS011;55048;52.220;5.160;2022-07-12T00:08:09;2.42;;;1.00;;
68229;SDS011;55048;52.220;5.160;2022-07-12T00:10:34;1.70;;;1.00;;
68229;SDS011;55048;52.220;5.160;2022-07-12T00:13:00;3.55;;;1.10;;
68229;SDS011;55048;52.220;5.160;2022-07-12T00:15:25;2.55;;;1.02;;
68229;SDS011;55048;52.220;5.160;2022-07-12T00:17:51;2.10;;;1.10;;
68229;SDS011;55048;52.220;5.160;2022-07-12T00:20:16;2.22;;;1.15;;
68229;SDS011;55048;52.220;5.160;2022-07-12T00:22:41;1.60;;;1.30;;
68229;SDS011;55048;52.220;5.160;2022-07-12T00:25:07;1.88;;;1.20;;
68229;SDS011;55048;52.220;5.160;2022-07-12T00:27:33;5.43;;;1.10;;
68229;SDS011;55048;52.220;5.160;2022-07-12T00:29:58;2.47;;;1.10;;
68229;SDS011;55048;52.220;5.160;2022-07-12T00:32:24;1.13;;;0.95;;
68229;SDS011;55048;52.220;5.160;2022-07-12T00:34:49;1.70;;;1.10;;
68229;SDS011;55048;52.220;5.160;2022-07-12T00:37:14;1.98;;;1.00;;
68229;SDS011;55048;52.220;5.160;2022-07-12T00:39:40;1.75;;;1.35;;
68229;SDS011;55048;52.220;5.160;2022-07-12T00:42:05;1.92;;;1.10;;
68229;SDS011;55048;52.220;5.160;2022-07-12T00:44:31;2.58;;;1.17;;
68229;SDS011;55048;52.220;5.160;2022-07-12T00:46:58;2.97;;;1.35;;
68229;SDS011;55048;52.220;5.160;2022-07-12T00:49:25;1.30;;;1.02;;
68229;SDS011;55048;52.220;5.160;2022-07-12T00:51:51;1.02;;;0.90;;
68229;SDS011;55048;52.220;5.160;2022-07-12T00:54:16;1.48;;;1.10;;
68229;SDS011;55048;52.220;5.160;2022-07-12T00:56:42;1.38;;;1.10;;
68229;SDS011;55048;52.220;5.160;2022-07-12T00:59:08;5.93;;;1.20;;
68229;SDS011;55048;52.220;5.160;2022-07-12T01:01:34;3.22;;;1.10;;
68229;SDS011;55048;52.220;5.160;2022-07-12T01:04:00;4.68;;;1.20;;
68229;SDS011;55048;52.220;5.160;2022-07-12T01:06:26;1.60;;;1.20;;
68229;SDS011;55048;52.220;5.160;2022-07-12T01:08:51;2.05;;;1.42;;
68229;SDS011;55048;52.220;5.160;2022-07-12T01:11:18;1.30;;;1.10;;
68229;SDS011;55048;52.220;5.160;2022-07-12T01:13:44;2.58;;;1.15;;
68229;SDS011;55048;52.220;5.160;2022-07-12T01:16:10;1.20;;;1.10;;
68229;SDS011;55048;52.220;5.160;2022-07-12T01:18:36;1.52;;;1.13;;
68229;SDS011;55048;52.220;5.160;2022-07-12T01:21:03;2.13;;;1.15;;
68229;SDS011;55048;52.220;5.160;2022-07-12T01:23:32;1.75;;;1.10;;
68229;SDS011;55048;52.220;5.160;2022-07-12T01:25:59;2.60;;;1.00;;
68229;SDS011;55048;52.220;5.160;2022-07-12T01:28:25;3.47;;;1.10;;
68229;SDS011;55048;52.220;5.160;2022-07-12T01:30:50;1.70;;;1.00;;
68229;SDS011;55048;52.220;5.160;2022-07-12T01:33:16;1.98;;;1.00;;
68229;SDS011;55048;52.220;5.160;2022-07-12T01:35:42;3.22;;;1.10;;
68229;SDS011;55048;52.220;5.160;2022-07-12T01:38:08;1.77;;;1.30;;
68229;SDS011;55048;52.220;5.160;2022-07-12T01:40:33;2.30;;;1.20;;
68229;SDS011;55048;52.220;5.160;2022-07-12T01:43:01;4.18;;;1.20;;
68229;SDS011;55048;52.220;5.160;2022-07-12T01:45:27;6.22;;;1.45;;
68229;SDS011;55048;52.220;5.160;2022-07-12T01:47:52;2.15;;;1.50;;
68229;SDS011;55048;52.220;5.160;2022-07-12T01:50:18;8.68;;;1.50;;
68229;SDS011;55048;52.220;5.160;2022-07-12T01:52:44;1.70;;;1.38;;
68229;SDS011;55048;52.220;5.160;2022-07-12T01:55:10;1.70;;;1.50;;
68229;SDS011;55048;52.220;5.160;2022-07-12T01:57:37;3.25;;;1.30;;
68229;SDS011;55048;52.220;5.160;2022-07-12T02:00:03;1.98;;;1.25;;
68229;SDS011;55048;52.220;5.160;2022-07-12T02:02:31;1.90;;;1.50;;
68229;SDS011;55048;52.220;5.160;2022-07-12T02:04:57;3.40;;;1.42;;
68229;SDS011;55048;52.220;5.160;2022-07-12T02:07:23;2.70;;;1.25;;
68229;SDS011;55048;52.220;5.160;2022-07-12T02:09:49;3.13;;;1.80;;
68229;SDS011;55048;52.220;5.160;2022-07-12T02:12:15;1.63;;;1.50;;
68229;SDS011;55048;52.220;5.160;2022-07-12T02:14:40;1.60;;;1.50;;
68229;SDS011;55048;52.220;5.160;2022-07-12T02:17:09;2.53;;;1.75;;
68229;SDS011;55048;52.220;5.160;2022-07-12T02:19:34;3.22;;;1.60;;
68229;SDS011;55048;52.220;5.160;2022-07-12T02:21:59;2.00;;;1.70;;
68229;SDS011;55048;52.220;5.160;2022-07-12T02:24:25;2.95;;;1.63;;
68229;SDS011;55048;52.220;5.160;2022-07-12T02:26:50;2.45;;;1.70;;
68229;SDS011;55048;52.220;5.160;2022-07-12T02:29:15;2.38;;;1.83;;
68229;SDS011;55048;52.220;5.160;2022-07-12T02:31:41;4.55;;;1.92;;
68229;SDS011;55048;52.220;5.160;2022-07-12T02:34:06;1.63;;;1.50;;
68229;SDS011;55048;52.220;5.160;2022-07-12T02:36:32;2.88;;;1.63;;
68229;SDS011;55048;52.220;5.160;2022-07-12T02:38:58;1.75;;;1.60;;
68229;SDS011;55048;52.220;5.160;2022-07-12T02:41:28;1.77;;;1.50;;
68229;SDS011;55048;52.220;5.160;2022-07-12T02:43:54;2.00;;;1.40;;
68229;SDS011;55048;52.220;5.160;2022-07-12T02:46:19;3.35;;;1.45;;
68229;SDS011;55048;52.220;5.160;2022-07-12T02:48:45;2.47;;;1.67;;
68229;SDS011;55048;52.220;5.160;2022-07-12T02:51:11;3.03;;;1.75;;
68229;SDS011;55048;52.220;5.160;2022-07-12T02:53:36;3.80;;;1.60;;
68229;SDS011;55048;52.220;5.160;2022-07-12T02:56:03;2.83;;;1.60;;
68229;SDS011;55048;52.220;5.160;2022-07-12T02:58:28;4.85;;;1.50;;
68229;SDS011;55048;52.220;5.160;2022-07-12T03:00:54;2.80;;;1.42;;
68229;SDS011;55048;52.220;5.160;2022-07-12T03:03:19;1.70;;;1.40;;
68229;SDS011;55048;52.220;5.160;2022-07-12T03:05:45;3.22;;;1.50;;
68229;SDS011;55048;52.220;5.160;2022-07-12T03:08:11;1.52;;;1.42;;
68229;SDS011;55048;52.220;5.160;2022-07-12T03:10:37;2.92;;;1.80;;
68229;SDS011;55048;52.220;5.160;2022-07-12T03:13:04;2.53;;;1.80;;
68229;SDS011;55048;52.220;5.160;2022-07-12T03:15:31;2.70;;;1.90;;
68229;SDS011;55048;52.220;5.160;2022-07-12T03:17:57;4.22;;;1.77;;
68229;SDS011;55048;52.220;5.160;2022-07-12T03:20:23;2.05;;;1.55;;
68229;SDS011;55048;52.220;5.160;2022-07-12T03:22:49;1.65;;;1.55;;
68229;SDS011;55048;52.220;5.160;2022-07-12T03:25:17;2.47;;;1.70;;
68229;SDS011;55048;52.220;5.160;2022-07-12T03:27:43;2.35;;;1.60;;
68229;SDS011;55048;52.220;5.160;2022-07-12T03:30:08;3.35;;;1.90;;
68229;SDS011;55048;52.220;5.160;2022-07-12T03:32:36;5.18;;;1.75;;
68229;SDS011;55048;52.220;5.160;2022-07-12T03:35:01;2.10;;;1.60;;
68229;SDS011;55048;52.220;5.160;2022-07-12T03:37:38;3.08;;;1.67;;
68229;SDS011;55048;52.220;5.160;2022-07-12T03:40:14;3.05;;;1.70;;
68229;SDS011;55048;52.220;5.160;2022-07-12T03:42:41;4.90;;;1.90;;
68229;SDS011;55048;52.220;5.160;2022-07-12T03:45:07;2.47;;;1.90;;
68229;SDS011;55048;52.220;5.160;2022-07-12T03:47:33;2.67;;;1.65;;
68229;SDS011;55048;52.220;5.160;2022-07-12T03:50:06;3.60;;;1.55;;
68229;SDS011;55048;52.220;5.160;2022-07-12T03:52:33;2.47;;;1.70;;
68229;SDS011;55048;52.220;5.160;2022-07-12T03:54:59;3.15;;;2.00;;
68229;SDS011;55048;52.220;5.160;2022-07-12T03:57:26;2.97;;;1.80;;
68229;SDS011;55048;52.220;5.160;2022-07-12T03:59:52;2.67;;;1.80;;
68229;SDS011;55048;52.220;5.160;2022-07-12T04:02:18;2.92;;;1.90;;
68229;SDS011;55048;52.220;5.160;2022-07-12T04:04:43;1.95;;;1.70;;
68229;SDS011;55048;52.220;5.160;2022-07-12T04:07:09;2.33;;;1.60;;
68229;SDS011;55048;52.220;5.160;2022-07-12T04:09:34;2.00;;;1.80;;
68229;SDS011;55048;52.220;5.160;2022-07-12T04:12:00;3.58;;;1.70;;
68229;SDS011;55048;52.220;5.160;2022-07-12T04:14:25;1.75;;;1.63;;
68229;SDS011;55048;52.220;5.160;2022-07-12T04:16:50;3.40;;;1.98;;
68229;SDS011;55048;52.220;5.160;2022-07-12T04:19:16;3.05;;;1.60;;
68229;SDS011;55048;52.220;5.160;2022-07-12T04:21:41;3.58;;;1.55;;
68229;SDS011;55048;52.220;5.160;2022-07-12T04:24:07;4.10;;;1.70;;
68229;SDS011;55048;52.220;5.160;2022-07-12T04:26:32;2.20;;;1.95;;
68229;SDS011;55048;52.220;5.160;2022-07-12T04:28:58;1.90;;;1.67;;
68229;SDS011;55048;52.220;5.160;2022-07-12T04:31:24;3.65;;;1.95;;
68229;SDS011;55048;52.220;5.160;2022-07-12T04:33:49;3.67;;;1.85;;
68229;SDS011;55048;52.220;5.160;2022-07-12T04:36:16;2.47;;;2.15;;
68229;SDS011;55048;52.220;5.160;2022-07-12T04:38:41;2.10;;;1.90;;
68229;SDS011;55048;52.220;5.160;2022-07-12T04:41:07;5.15;;;2.47;;
68229;SDS011;55048;52.220;5.160;2022-07-12T04:43:32;5.15;;;2.42;;
68229;SDS011;55048;52.220;5.160;2022-07-12T04:46:07;4.05;;;2.65;;
68229;SDS011;55048;52.220;5.160;2022-07-12T04:48:34;3.03;;;2.72;;
68229;SDS011;55048;52.220;5.160;2022-07-12T04:50:59;4.07;;;3.30;;
68229;SDS011;55048;52.220;5.160;2022-07-12T04:53:25;4.82;;;3.60;;
68229;SDS011;55048;52.220;5.160;2022-07-12T04:55:50;4.40;;;4.00;;
68229;SDS011;55048;52.220;5.160;2022-07-12T04:58:16;4.57;;;4.18;;
68229;SDS011;55048;52.220;5.160;2022-07-12T05:00:41;6.60;;;4.15;;
68229;SDS011;55048;52.220;5.160;2022-07-12T05:03:06;7.80;;;4.38;;
68229;SDS011;55048;52.220;5.160;2022-07-12T05:05:32;4.20;;;3.80;;
68229;SDS011;55048;52.220;5.160;2022-07-12T05:07:57;6.55;;;4.07;;
68229;SDS011;55048;52.220;5.160;2022-07-12T05:10:23;7.75;;;4.90;;
68229;SDS011;55048;52.220;5.160;2022-07-12T05:12:48;4.95;;;4.55;;
68229;SDS011;55048;52.220;5.160;2022-07-12T05:15:13;4.63;;;4.20;;
68229;SDS011;55048;52.220;5.160;2022-07-12T05:17:39;5.10;;;4.60;;
68229;SDS011;55048;52.220;5.160;2022-07-12T05:20:04;7.65;;;4.60;;
68229;SDS011;55048;52.220;5.160;2022-07-12T05:22:30;4.97;;;4.57;;
68229;SDS011;55048;52.220;5.160;2022-07-12T05:24:55;5.78;;;5.15;;
68229;SDS011;55048;52.220;5.160;2022-07-12T05:27:21;7.97;;;4.43;;
68229;SDS011;55048;52.220;5.160;2022-07-12T05:29:46;6.03;;;4.72;;
68229;SDS011;55048;52.220;5.160;2022-07-12T05:32:11;5.25;;;4.25;;
68229;SDS011;55048;52.220;5.160;2022-07-12T05:34:37;4.75;;;4.40;;
68229;SDS011;55048;52.220;5.160;2022-07-12T05:37:03;5.22;;;4.10;;
68229;SDS011;55048;52.220;5.160;2022-07-12T05:39:29;7.82;;;5.40;;
68229;SDS011;55048;52.220;5.160;2022-07-12T05:41:54;7.28;;;5.07;;
68229;SDS011;55048;52.220;5.160;2022-07-12T05:44:20;5.18;;;4.68;;
68229;SDS011;55048;52.220;5.160;2022-07-12T05:46:45;6.57;;;4.95;;
68229;SDS011;55048;52.220;5.160;2022-07-12T05:49:11;10.55;;;4.80;;
68229;SDS011;55048;52.220;5.160;2022-07-12T05:51:36;5.13;;;4.63;;
68229;SDS011;55048;52.220;5.160;2022-07-12T05:54:20;5.03;;;4.63;;
68229;SDS011;55048;52.220;5.160;2022-07-12T05:56:46;5.95;;;5.10;;
68229;SDS011;55048;52.220;5.160;2022-07-12T05:59:11;8.57;;;4.60;;
68229;SDS011;55048;52.220;5.160;2022-07-12T06:01:36;6.70;;;4.65;;
68229;SDS011;55048;52.220;5.160;2022-07-12T06:04:03;6.15;;;5.05;;
68229;SDS011;55048;52.220;5.160;2022-07-12T06:06:29;7.80;;;5.20;;
68229;SDS011;55048;52.220;5.160;2022-07-12T06:08:54;4.80;;;4.13;;
68229;SDS011;55048;52.220;5.160;2022-07-12T06:11:19;5.05;;;3.95;;
68229;SDS011;55048;52.220;5.160;2022-07-12T06:13:45;4.82;;;4.15;;
68229;SDS011;55048;52.220;5.160;2022-07-12T06:16:10;4.45;;;4.07;;
68229;SDS011;55048;52.220;5.160;2022-07-12T06:18:36;7.05;;;3.88;;
68229;SDS011;55048;52.220;5.160;2022-07-12T06:21:02;4.10;;;3.72;;
68229;SDS011;55048;52.220;5.160;2022-07-12T06:23:27;4.53;;;3.35;;
68229;SDS011;55048;52.220;5.160;2022-07-12T06:25:53;6.05;;;4.00;;
68229;SDS011;55048;52.220;5.160;2022-07-12T06:28:18;4.82;;;4.10;;
68229;SDS011;55048;52.220;5.160;2022-07-12T06:30:44;6.93;;;3.88;;
68229;SDS011;55048;52.220;5.160;2022-07-12T06:33:09;5.10;;;3.38;;
68229;SDS011;55048;52.220;5.160;2022-07-12T06:35:34;4.10;;;3.30;;
68229;SDS011;55048;52.220;5.160;2022-07-12T06:38:00;4.65;;;3.65;;
68229;SDS011;55048;52.220;5.160;2022-07-12T06:40:25;6.05;;;3.47;;
68229;SDS011;55048;52.220;5.160;2022-07-12T06:42:51;4.10;;;3.40;;
68229;SDS011;55048;52.220;5.160;2022-07-12T06:45:16;5.13;;;3.47;;
68229;SDS011;55048;52.220;5.160;2022-07-12T06:47:42;4.88;;;4.38;;
68229;SDS011;55048;52.220;5.160;2022-07-12T06:50:07;4.65;;;4.15;;
68229;SDS011;55048;52.220;5.160;2022-07-12T06:52:33;6.68;;;3.65;;
68229;SDS011;55048;52.220;5.160;2022-07-12T06:54:58;6.30;;;3.58;;
68229;SDS011;55048;52.220;5.160;2022-07-12T06:57:24;5.30;;;3.78;;
68229;SDS011;55048;52.220;5.160;2022-07-12T06:59:51;3.95;;;3.33;;
68229;SDS011;55048;52.220;5.160;2022-07-12T07:02:17;4.03;;;3.53;;
68229;SDS011;55048;52.220;5.160;2022-07-12T07:04:42;4.65;;;3.67;;
68229;SDS011;55048;52.220;5.160;2022-07-12T07:07:10;7.93;;;3.97;;
68229;SDS011;55048;52.220;5.160;2022-07-12T07:09:35;4.78;;;3.60;;
68229;SDS011;55048;52.220;5.160;2022-07-12T07:12:01;4.60;;;3.83;;
68229;SDS011;55048;52.220;5.160;2022-07-12T07:14:27;7.28;;;3.90;;
68229;SDS011;55048;52.220;5.160;2022-07-12T07:16:52;3.88;;;3.42;;
68229;SDS011;55048;52.220;5.160;2022-07-12T07:19:18;8.60;;;3.25;;
68229;SDS011;55048;52.220;5.160;2022-07-12T07:21:44;5.97;;;3.42;;
68229;SDS011;55048;52.220;5.160;2022-07-12T07:24:09;4.90;;;3.42;;
68229;SDS011;55048;52.220;5.160;2022-07-12T07:26:35;4.75;;;3.22;;
68229;SDS011;55048;52.220;5.160;2022-07-12T07:29:01;4.20;;;3.33;;
68229;SDS011;55048;52.220;5.160;2022-07-12T07:31:44;5.40;;;2.63;;
68229;SDS011;55048;52.220;5.160;2022-07-12T07:34:10;3.22;;;2.92;;
68229;SDS011;55048;52.220;5.160;2022-07-12T07:36:35;3.92;;;2.85;;
68229;SDS011;55048;52.220;5.160;2022-07-12T07:39:01;3.45;;;2.53;;
68229;SDS011;55048;52.220;5.160;2022-07-12T07:41:26;2.78;;;2.40;;
68229;SDS011;55048;52.220;5.160;2022-07-12T07:43:52;5.25;;;2.63;;
68229;SDS011;55048;52.220;5.160;2022-07-12T07:46:17;6.25;;;2.30;;
68229;SDS011;55048;52.220;5.160;2022-07-12T07:48:42;5.32;;;2.28;;
68229;SDS011;55048;52.220;5.160;2022-07-12T07:51:08;4.65;;;2.75;;
68229;SDS011;55048;52.220;5.160;2022-07-12T07:53:33;7.75;;;2.88;;
68229;SDS011;55048;52.220;5.160;2022-07-12T07:55:59;3.75;;;2.03;;
68229;SDS011;55048;52.220;5.160;2022-07-12T07:58:25;5.50;;;2.60;;
68229;SDS011;55048;52.220;5.160;2022-07-12T08:00:51;5.15;;;2.70;;
68229;SDS011;55048;52.220;5.160;2022-07-12T08:03:17;5.72;;;3.05;;
68229;SDS011;55048;52.220;5.160;2022-07-12T08:05:43;5.68;;;2.97;;
68229;SDS011;55048;52.220;5.160;2022-07-12T08:08:09;5.05;;;3.40;;
68229;SDS011;55048;52.220;5.160;2022-07-12T08:10:34;5.05;;;3.60;;
68229;SDS011;55048;52.220;5.160;2022-07-12T08:13:00;4.53;;;3.20;;
68229;SDS011;55048;52.220;5.160;2022-07-12T08:15:25;3.30;;;3.00;;
68229;SDS011;55048;52.220;5.160;2022-07-12T08:17:51;5.15;;;3.30;;
68229;SDS011;55048;52.220;5.160;2022-07-12T08:20:17;4.10;;;3.10;;
68229;SDS011;55048;52.220;5.160;2022-07-12T08:22:43;3.70;;;3.40;;
68229;SDS011;55048;52.220;5.160;2022-07-12T08:25:12;8.25;;;3.42;;
68229;SDS011;55048;52.220;5.160;2022-07-12T08:27:38;4.13;;;2.90;;
68229;SDS011;55048;52.220;5.160;2022-07-12T08:30:04;4.68;;;3.30;;
68229;SDS011;55048;52.220;5.160;2022-07-12T08:32:30;6.57;;;3.35;;
68229;SDS011;55048;52.220;5.160;2022-07-12T08:34:56;5.18;;;3.05;;
68229;SDS011;55048;52.220;5.160;2022-07-12T08:37:21;2.72;;;2.20;;
68229;SDS011;55048;52.220;5.160;2022-07-12T08:39:47;3.03;;;2.42;;
68229;SDS011;55048;52.220;5.160;2022-07-12T08:44:42;3.33;;;3.03;;
68229;SDS011;55048;52.220;5.160;2022-07-12T08:47:08;3.00;;;1.90;;
68229;SDS011;55048;52.220;5.160;2022-07-12T08:49:34;5.38;;;2.53;;
68229;SDS011;55048;52.220;5.160;2022-07-12T08:52:04;2.42;;;1.90;;
68229;SDS011;55048;52.220;5.160;2022-07-12T08:54:49;4.45;;;2.20;;
68229;SDS011;55048;52.220;5.160;2022-07-12T08:57:27;3.90;;;1.90;;
68229;SDS011;55048;52.220;5.160;2022-07-12T09:02:26;2.47;;;1.85;;
68229;SDS011;55048;52.220;5.160;2022-07-12T09:05:07;2.38;;;1.98;;
68229;SDS011;55048;52.220;5.160;2022-07-12T09:07:36;5.20;;;2.23;;
68229;SDS011;55048;52.220;5.160;2022-07-12T09:10:03;1.90;;;1.50;;
68229;SDS011;55048;52.220;5.160;2022-07-12T09:12:30;2.92;;;1.73;;
68229;SDS011;55048;52.220;5.160;2022-07-12T09:14:55;2.00;;;1.40;;
68229;SDS011;55048;52.220;5.160;2022-07-12T09:17:35;2.15;;;1.60;;
68229;SDS011;55048;52.220;5.160;2022-07-12T09:20:00;2.47;;;1.90;;
68229;SDS011;55048;52.220;5.160;2022-07-12T09:22:26;2.95;;;1.30;;
68229;SDS011;55048;52.220;5.160;2022-07-12T09:24:51;2.50;;;1.80;;
68229;SDS011;55048;52.220;5.160;2022-07-12T09:27:16;3.80;;;1.50;;
68229;SDS011;55048;52.220;5.160;2022-07-12T09:29:50;3.72;;;1.73;;
68229;SDS011;55048;52.220;5.160;2022-07-12T09:32:15;4.72;;;1.73;;
68229;SDS011;55048;52.220;5.160;2022-07-12T09:35:00;2.88;;;1.55;;
68229;SDS011;55048;52.220;5.160;2022-07-12T09:38:09;3.08;;;1.77;;
68229;SDS011;55048;52.220;5.160;2022-07-12T09:40:35;2.85;;;1.30;;
68229;SDS011;55048;52.220;5.160;2022-07-12T09:43:01;9.43;;;1.50;;
68229;SDS011;55048;52.220;5.160;2022-07-12T09:45:28;1.10;;;0.90;;
68229;SDS011;55048;52.220;5.160;2022-07-12T09:47:53;1.83;;;1.50;;
68229;SDS011;55048;52.220;5.160;2022-07-12T09:50:20;1.55;;;0.80;;
68229;SDS011;55048;52.220;5.160;2022-07-12T09:52:45;3.75;;;0.70;;
68229;SDS011;55048;52.220;5.160;2022-07-12T09:55:13;3.67;;;1.20;;
68229;SDS011;55048;52.220;5.160;2022-07-12T09:57:42;2.95;;;1.05;;
68229;SDS011;55048;52.220;5.160;2022-07-12T10:00:11;1.30;;;1.20;;
68229;SDS011;55048;52.220;5.160;2022-07-12T10:02:37;2.25;;;1.33;;
68229;SDS011;55048;52.220;5.160;2022-07-12T10:05:04;2.78;;;1.33;;
68229;SDS011;55048;52.220;5.160;2022-07-12T10:07:30;2.42;;;1.40;;
68229;SDS011;55048;52.220;5.160;2022-07-12T10:09:56;2.88;;;1.20;;
68229;SDS011;55048;52.220;5.160;2022-07-12T10:12:22;3.38;;;1.05;;
68229;SDS011;55048;52.220;5.160;2022-07-12T10:14:50;4.15;;;1.17;;
68229;SDS011;55048;52.220;5.160;2022-07-12T10:17:24;2.33;;;1.00;;
68229;SDS011;55048;52.220;5.160;2022-07-12T10:20:13;1.45;;;1.10;;
68229;SDS011;55048;52.220;5.160;2022-07-12T10:22:44;3.22;;;1.42;;
68229;SDS011;55048;52.220;5.160;2022-07-12T10:27:51;1.95;;;1.15;;
68229;SDS011;55048;52.220;5.160;2022-07-12T10:30:17;2.72;;;1.50;;
68229;SDS011;55048;52.220;5.160;2022-07-12T10:32:44;5.10;;;1.50;;
68229;SDS011;55048;52.220;5.160;2022-07-12T10:35:32;2.00;;;1.70;;
68229;SDS011;55048;52.220;5.160;2022-07-12T10:40:37;7.00;;;1.50;;
68229;SDS011;55048;52.220;5.160;2022-07-12T10:45:30;4.43;;;1.90;;
68229;SDS011;55048;52.220;5.160;2022-07-12T10:48:00;3.90;;;1.45;;
68229;SDS011;55048;52.220;5.160;2022-07-12T10:53:37;5.25;;;1.08;;
68229;SDS011;55048;52.220;5.160;2022-07-12T10:58:29;4.63;;;1.40;;
68229;SDS011;55048;52.220;5.160;2022-07-12T11:00:55;4.82;;;1.58;;
68229;SDS011;55048;52.220;5.160;2022-07-12T11:03:22;2.65;;;1.25;;
68229;SDS011;55048;52.220;5.160;2022-07-12T11:05:49;2.88;;;1.42;;
68229;SDS011;55048;52.220;5.160;2022-07-12T11:08:14;2.17;;;1.10;;
68229;SDS011;55048;52.220;5.160;2022-07-12T11:10:53;1.83;;;1.30;;
68229;SDS011;55048;52.220;5.160;2022-07-12T11:13:20;5.40;;;1.73;;
68229;SDS011;55048;52.220;5.160;2022-07-12T11:15:59;3.00;;;1.38;;
68229;SDS011;55048;52.220;5.160;2022-07-12T11:18:35;3.83;;;1.80;;
68229;SDS011;55048;52.220;5.160;2022-07-12T11:21:02;3.58;;;1.25;;
68229;SDS011;55048;52.220;5.160;2022-07-12T11:23:28;4.07;;;0.90;;
68229;SDS011;55048;52.220;5.160;2022-07-12T11:25:55;3.05;;;1.20;;
68229;SDS011;55048;52.220;5.160;2022-07-12T11:28:22;7.63;;;1.17;;
68229;SDS011;55048;52.220;5.160;2022-07-12T11:30:49;2.92;;;1.27;;
68229;SDS011;55048;52.220;5.160;2022-07-12T11:33:19;2.88;;;1.10;;
68229;SDS011;55048;52.220;5.160;2022-07-12T11:35:50;3.20;;;1.08;;
68229;SDS011;55048;52.220;5.160;2022-07-12T11:38:16;4.38;;;1.13;;
68229;SDS011;55048;52.220;5.160;2022-07-12T11:40:53;1.48;;;1.17;;
68229;SDS011;55048;52.220;5.160;2022-07-12T11:43:19;5.50;;;1.30;;
68229;SDS011;55048;52.220;5.160;2022-07-12T11:45:45;3.83;;;1.17;;
68229;SDS011;55048;52.220;5.160;2022-07-12T11:48:11;3.10;;;1.42;;
68229;SDS011;55048;52.220;5.160;2022-07-12T11:50:36;5.78;;;1.30;;
68229;SDS011;55048;52.220;5.160;2022-07-12T11:53:02;2.88;;;1.00;;
68229;SDS011;55048;52.220;5.160;2022-07-12T11:55:29;1.60;;;1.10;;
68229;SDS011;55048;52.220;5.160;2022-07-12T11:58:03;2.10;;;1.00;;
68229;SDS011;55048;52.220;5.160;2022-07-12T12:00:30;2.08;;;1.20;;
68229;SDS011;55048;52.220;5.160;2022-07-12T12:02:55;1.00;;;0.80;;
68229;SDS011;55048;52.220;5.160;2022-07-12T12:05:20;3.17;;;1.08;;
68229;SDS011;55048;52.220;5.160;2022-07-12T12:07:46;1.73;;;1.00;;
68229;SDS011;55048;52.220;5.160;2022-07-12T12:10:12;1.45;;;1.20;;
68229;SDS011;55048;52.220;5.160;2022-07-12T12:12:49;2.10;;;1.20;;
68229;SDS011;55048;52.220;5.160;2022-07-12T12:15:20;4.85;;;1.48;;
68229;SDS011;55048;52.220;5.160;2022-07-12T12:20:37;4.60;;;1.33;;
68229;SDS011;55048;52.220;5.160;2022-07-12T12:23:04;2.72;;;0.95;;
68229;SDS011;55048;52.220;5.160;2022-07-12T12:25:31;5.15;;;1.00;;
68229;SDS011;55048;52.220;5.160;2022-07-12T12:27:58;6.38;;;1.00;;
68229;SDS011;55048;52.220;5.160;2022-07-12T12:30:34;2.40;;;0.80;;
68229;SDS011;55048;52.220;5.160;2022-07-12T12:33:12;3.60;;;1.60;;
68229;SDS011;55048;52.220;5.160;2022-07-12T12:35:38;5.53;;;1.40;;
68229;SDS011;55048;52.220;5.160;2022-07-12T12:38:11;2.08;;;1.10;;
68229;SDS011;55048;52.220;5.160;2022-07-12T12:40:41;5.13;;;0.80;;
68229;SDS011;55048;52.220;5.160;2022-07-12T12:43:19;0.82;;;0.60;;
68229;SDS011;55048;52.220;5.160;2022-07-12T12:45:48;1.08;;;0.82;;
68229;SDS011;55048;52.220;5.160;2022-07-12T12:48:22;3.58;;;1.08;;
68229;SDS011;55048;52.220;5.160;2022-07-12T12:50:53;2.55;;;1.10;;
68229;SDS011;55048;52.220;5.160;2022-07-12T12:53:21;4.68;;;1.25;;
68229;SDS011;55048;52.220;5.160;2022-07-12T12:55:49;2.33;;;1.05;;
68229;SDS011;55048;52.220;5.160;2022-07-12T12:58:19;2.72;;;1.10;;
68229;SDS011;55048;52.220;5.160;2022-07-12T13:00:47;1.52;;;0.85;;
68229;SDS011;55048;52.220;5.160;2022-07-12T13:03:15;3.83;;;1.00;;
68229;SDS011;55048;52.220;5.160;2022-07-12T13:05:42;1.90;;;0.90;;
68229;SDS011;55048;52.220;5.160;2022-07-12T13:08:09;4.47;;;1.15;;
68229;SDS011;55048;52.220;5.160;2022-07-12T13:10:35;5.38;;;1.48;;
68229;SDS011;55048;52.220;5.160;2022-07-12T13:13:02;5.47;;;1.27;;
68229;SDS011;55048;52.220;5.160;2022-07-12T13:15:29;5.15;;;2.05;;
68229;SDS011;55048;52.220;5.160;2022-07-12T13:17:55;6.05;;;2.40;;
68229;SDS011;55048;52.220;5.160;2022-07-12T13:20:21;3.67;;;2.53;;
68229;SDS011;55048;52.220;5.160;2022-07-12T13:22:47;4.07;;;2.53;;
68229;SDS011;55048;52.220;5.160;2022-07-12T13:25:13;2.40;;;1.90;;
68229;SDS011;55048;52.220;5.160;2022-07-12T13:27:40;1.55;;;1.40;;
68229;SDS011;55048;52.220;5.160;2022-07-12T13:30:07;5.38;;;1.92;;
68229;SDS011;55048;52.220;5.160;2022-07-12T13:32:34;2.55;;;1.48;;
68229;SDS011;55048;52.220;5.160;2022-07-12T13:35:00;2.92;;;1.30;;
68229;SDS011;55048;52.220;5.160;2022-07-12T13:37:27;3.42;;;1.30;;
68229;SDS011;55048;52.220;5.160;2022-07-12T13:39:53;2.78;;;1.30;;
68229;SDS011;55048;52.220;5.160;2022-07-12T13:45:28;1.50;;;1.00;;
68229;SDS011;55048;52.220;5.160;2022-07-12T13:47:54;4.70;;;1.30;;
68229;SDS011;55048;52.220;5.160;2022-07-12T13:50:20;3.20;;;1.00;;
68229;SDS011;55048;52.220;5.160;2022-07-12T13:52:47;1.30;;;0.75;;
68229;SDS011;55048;52.220;5.160;2022-07-12T13:55:14;4.65;;;1.10;;
68229;SDS011;55048;52.220;5.160;2022-07-12T13:57:41;2.47;;;0.90;;
68229;SDS011;55048;52.220;5.160;2022-07-12T14:00:08;2.15;;;0.90;;
68229;SDS011;55048;52.220;5.160;2022-07-12T14:02:41;1.33;;;0.80;;
68229;SDS011;55048;52.220;5.160;2022-07-12T14:05:08;2.10;;;0.93;;
68229;SDS011;55048;52.220;5.160;2022-07-12T14:07:35;1.70;;;0.70;;
68229;SDS011;55048;52.220;5.160;2022-07-12T14:10:02;4.82;;;0.73;;
68229;SDS011;55048;52.220;5.160;2022-07-12T14:12:27;1.60;;;0.80;;
68229;SDS011;55048;52.220;5.160;2022-07-12T14:14:53;1.50;;;0.68;;
68229;SDS011;55048;52.220;5.160;2022-07-12T14:17:40;6.38;;;0.75;;
68229;SDS011;55048;52.220;5.160;2022-07-12T14:20:08;1.55;;;0.90;;
68229;SDS011;55048;52.220;5.160;2022-07-12T14:22:34;1.70;;;0.80;;
68229;SDS011;55048;52.220;5.160;2022-07-12T14:25:00;1.40;;;0.95;;
68229;SDS011;55048;52.220;5.160;2022-07-12T14:27:25;3.85;;;0.80;;
68229;SDS011;55048;52.220;5.160;2022-07-12T14:29:50;1.42;;;0.80;;
68229;SDS011;55048;52.220;5.160;2022-07-12T14:32:16;2.33;;;1.00;;
68229;SDS011;55048;52.220;5.160;2022-07-12T14:34:42;1.58;;;0.90;;
68229;SDS011;55048;52.220;5.160;2022-07-12T14:37:07;5.05;;;0.82;;
68229;SDS011;55048;52.220;5.160;2022-07-12T14:39:33;1.30;;;0.90;;
68229;SDS011;55048;52.220;5.160;2022-07-12T14:41:59;1.73;;;0.80;;
68229;SDS011;55048;52.220;5.160;2022-07-12T14:44:25;2.17;;;0.93;;
68229;SDS011;55048;52.220;5.160;2022-07-12T14:46:51;2.03;;;0.80;;
68229;SDS011;55048;52.220;5.160;2022-07-12T14:49:18;1.48;;;0.80;;
68229;SDS011;55048;52.220;5.160;2022-07-12T14:51:45;5.57;;;0.70;;
68229;SDS011;55048;52.220;5.160;2022-07-12T14:54:10;3.70;;;1.02;;
68229;SDS011;55048;52.220;5.160;2022-07-12T14:56:36;1.15;;;0.70;;
68229;SDS011;55048;52.220;5.160;2022-07-12T14:59:01;4.88;;;0.70;;
68229;SDS011;55048;52.220;5.160;2022-07-12T15:01:26;0.70;;;0.60;;
68229;SDS011;55048;52.220;5.160;2022-07-12T15:03:52;1.15;;;0.60;;
68229;SDS011;55048;52.220;5.160;2022-07-12T15:06:17;2.33;;;0.70;;
68229;SDS011;55048;52.220;5.160;2022-07-12T15:08:43;2.03;;;0.70;;
68229;SDS011;55048;52.220;5.160;2022-07-12T15:11:08;5.25;;;0.75;;